sensor_id;sensor_type;location;lat;lon;timestamp;P1;durP1;ratioP1;P2;durP2;ratioP2
45007;SDS011;30743;52.008;5.644;2023-10-19T00:00:13;9.02;;;6.40;;
45007;SDS011;30743;52.008;5.644;2023-10-19T00:02:48;8.60;;;7.18;;
45007;SDS011;30743;52.008;5.644;2023-10-19T00:05:17;8.05;;;6.82;;
45007;SDS011;30743;52.008;5.644;2023-10-19T00:07:43;7.15;;;6.43;;
45007;SDS011;30743;52.008;5.644;2023-10-19T00:10:09;8.45;;;7.05;;
45007;SDS011;30743;52.008;5.644;2023-10-19T00:12:35;8.80;;;7.13;;
45007;SDS011;30743;52.008;5.644;2023-10-19T00:15:01;8.48;;;7.38;;
45007;SDS011;30743;52.008;5.644;2023-10-19T00:17:29;9.15;;;6.57;;
45007;SDS011;30743;52.008;5.644;2023-10-19T00:19:55;9.40;;;7.45;;
45007;SDS011;30743;52.008;5.644;2023-10-19T00:22:39;9.05;;;7.47;;
45007;SDS011;30743;52.008;5.644;2023-10-19T00:25:05;8.57;;;7.07;;
45007;SDS011;30743;52.008;5.644;2023-10-19T00:27:33;7.90;;;7.10;;
45007;SDS011;30743;52.008;5.644;2023-10-19T00:29:58;8.82;;;7.45;;
45007;SDS011;30743;52.008;5.644;2023-10-19T00:32:31;8.13;;;7.03;;
45007;SDS011;30743;52.008;5.644;2023-10-19T00:34:56;8.18;;;7.28;;
45007;SDS011;30743;52.008;5.644;2023-10-19T00:37:29;8.75;;;7.50;;
45007;SDS011;30743;52.008;5.644;2023-10-19T00:39:58;9.00;;;7.65;;
45007;SDS011;30743;52.008;5.644;2023-10-19T00:42:39;8.25;;;7.22;;
45007;SDS011;30743;52.008;5.644;2023-10-19T00:45:11;8.40;;;7.53;;
45007;SDS011;30743;52.008;5.644;2023-10-19T00:47:38;9.65;;;8.27;;
45007;SDS011;30743;52.008;5.644;2023-10-19T00:50:05;11.43;;;8.15;;
45007;SDS011;30743;52.008;5.644;2023-10-19T00:52:40;10.70;;;8.32;;
45007;SDS011;30743;52.008;5.644;2023-10-19T00:55:11;9.70;;;8.63;;
45007;SDS011;30743;52.008;5.644;2023-10-19T00:57:39;9.82;;;8.50;;
45007;SDS011;30743;52.008;5.644;2023-10-19T01:00:07;9.55;;;8.57;;
45007;SDS011;30743;52.008;5.644;2023-10-19T01:02:37;9.45;;;8.45;;
45007;SDS011;30743;52.008;5.644;2023-10-19T01:05:10;11.63;;;9.70;;
45007;SDS011;30743;52.008;5.644;2023-10-19T01:07:38;10.27;;;8.32;;
45007;SDS011;30743;52.008;5.644;2023-10-19T01:10:05;13.02;;;10.23;;
45007;SDS011;30743;52.008;5.644;2023-10-19T01:12:44;12.32;;;9.35;;
45007;SDS011;30743;52.008;5.644;2023-10-19T01:15:11;11.30;;;9.35;;
45007;SDS011;30743;52.008;5.644;2023-10-19T01:17:46;13.35;;;10.23;;
45007;SDS011;30743;52.008;5.644;2023-10-19T01:20:19;11.43;;;10.15;;
45007;SDS011;30743;52.008;5.644;2023-10-19T01:22:59;14.98;;;10.38;;
45007;SDS011;30743;52.008;5.644;2023-10-19T01:31:12;11.50;;;9.63;;
45007;SDS011;30743;52.008;5.644;2023-10-19T01:33:41;12.45;;;10.60;;
45007;SDS011;30743;52.008;5.644;2023-10-19T01:36:08;10.35;;;9.35;;
45007;SDS011;30743;52.008;5.644;2023-10-19T01:38:37;10.98;;;9.77;;
45007;SDS011;30743;52.008;5.644;2023-10-19T01:41:04;12.27;;;10.93;;
45007;SDS011;30743;52.008;5.644;2023-10-19T01:43:38;11.30;;;9.93;;
45007;SDS011;30743;52.008;5.644;2023-10-19T01:46:07;11.00;;;9.40;;
45007;SDS011;30743;52.008;5.644;2023-10-19T01:48:38;11.43;;;9.80;;
45007;SDS011;30743;52.008;5.644;2023-10-19T01:51:06;10.25;;;8.68;;
45007;SDS011;30743;52.008;5.644;2023-10-19T01:53:35;11.48;;;9.75;;
45007;SDS011;30743;52.008;5.644;2023-10-19T01:56:08;13.10;;;8.93;;
45007;SDS011;30743;52.008;5.644;2023-10-19T01:58:38;10.40;;;9.02;;
45007;SDS011;30743;52.008;5.644;2023-10-19T02:01:05;11.23;;;8.57;;
45007;SDS011;30743;52.008;5.644;2023-10-19T02:03:34;10.82;;;9.35;;
45007;SDS011;30743;52.008;5.644;2023-10-19T02:06:01;10.73;;;8.32;;
45007;SDS011;30743;52.008;5.644;2023-10-19T02:08:50;11.55;;;8.35;;
45007;SDS011;30743;52.008;5.644;2023-10-19T02:11:40;10.77;;;8.27;;
45007;SDS011;30743;52.008;5.644;2023-10-19T02:14:07;9.80;;;8.80;;
45007;SDS011;30743;52.008;5.644;2023-10-19T02:16:39;10.82;;;9.02;;
45007;SDS011;30743;52.008;5.644;2023-10-19T02:19:17;11.82;;;9.07;;
45007;SDS011;30743;52.008;5.644;2023-10-19T02:21:44;11.52;;;8.75;;
45007;SDS011;30743;52.008;5.644;2023-10-19T02:24:13;11.88;;;8.35;;
45007;SDS011;30743;52.008;5.644;2023-10-19T02:26:40;9.38;;;7.45;;
45007;SDS011;30743;52.008;5.644;2023-10-19T02:29:06;9.98;;;8.60;;
45007;SDS011;30743;52.008;5.644;2023-10-19T02:31:33;10.00;;;8.57;;
45007;SDS011;30743;52.008;5.644;2023-10-19T02:33:59;8.93;;;8.02;;
45007;SDS011;30743;52.008;5.644;2023-10-19T02:36:25;12.52;;;8.52;;
45007;SDS011;30743;52.008;5.644;2023-10-19T02:38:55;11.52;;;9.02;;
45007;SDS011;30743;52.008;5.644;2023-10-19T02:41:27;9.77;;;8.77;;
45007;SDS011;30743;52.008;5.644;2023-10-19T02:46:34;9.63;;;8.00;;
45007;SDS011;30743;52.008;5.644;2023-10-19T02:49:03;11.20;;;8.10;;
45007;SDS011;30743;52.008;5.644;2023-10-19T02:51:34;10.00;;;8.43;;
45007;SDS011;30743;52.008;5.644;2023-10-19T02:54:00;11.68;;;8.20;;
45007;SDS011;30743;52.008;5.644;2023-10-19T02:56:27;10.57;;;8.93;;
45007;SDS011;30743;52.008;5.644;2023-10-19T02:58:55;12.18;;;9.27;;
45007;SDS011;30743;52.008;5.644;2023-10-19T03:01:26;10.93;;;9.05;;
45007;SDS011;30743;52.008;5.644;2023-10-19T03:03:56;11.00;;;9.80;;
45007;SDS011;30743;52.008;5.644;2023-10-19T03:06:29;11.68;;;9.10;;
45007;SDS011;30743;52.008;5.644;2023-10-19T03:08:59;10.02;;;9.02;;
45007;SDS011;30743;52.008;5.644;2023-10-19T03:11:29;14.45;;;9.82;;
45007;SDS011;30743;52.008;5.644;2023-10-19T03:13:58;12.75;;;9.95;;
45007;SDS011;30743;52.008;5.644;2023-10-19T03:16:24;11.68;;;10.45;;
45007;SDS011;30743;52.008;5.644;2023-10-19T03:18:50;10.27;;;9.18;;
45007;SDS011;30743;52.008;5.644;2023-10-19T03:21:18;10.80;;;8.38;;
45007;SDS011;30743;52.008;5.644;2023-10-19T03:23:51;8.95;;;7.97;;
45007;SDS011;30743;52.008;5.644;2023-10-19T03:26:21;9.35;;;7.57;;
45007;SDS011;30743;52.008;5.644;2023-10-19T03:28:47;9.02;;;8.02;;
45007;SDS011;30743;52.008;5.644;2023-10-19T03:31:23;9.95;;;6.97;;
45007;SDS011;30743;52.008;5.644;2023-10-19T03:33:50;9.25;;;6.72;;
45007;SDS011;30743;52.008;5.644;2023-10-19T03:36:20;8.57;;;6.32;;
45007;SDS011;30743;52.008;5.644;2023-10-19T03:38:46;7.22;;;5.63;;
45007;SDS011;30743;52.008;5.644;2023-10-19T03:41:14;7.50;;;5.15;;
45007;SDS011;30743;52.008;5.644;2023-10-19T03:43:40;5.53;;;3.97;;
45007;SDS011;30743;52.008;5.644;2023-10-19T03:46:06;5.15;;;3.67;;
45007;SDS011;30743;52.008;5.644;2023-10-19T03:48:44;5.72;;;3.15;;
45007;SDS011;30743;52.008;5.644;2023-10-19T03:51:11;4.72;;;3.35;;
45007;SDS011;30743;52.008;5.644;2023-10-19T03:53:38;6.13;;;3.20;;
45007;SDS011;30743;52.008;5.644;2023-10-19T03:56:08;3.92;;;3.08;;
45007;SDS011;30743;52.008;5.644;2023-10-19T03:58:36;4.13;;;2.75;;
45007;SDS011;30743;52.008;5.644;2023-10-19T04:01:04;5.80;;;2.60;;
45007;SDS011;30743;52.008;5.644;2023-10-19T04:03:30;3.92;;;2.50;;
45007;SDS011;30743;52.008;5.644;2023-10-19T04:05:56;4.95;;;2.20;;
45007;SDS011;30743;52.008;5.644;2023-10-19T04:10:51;4.90;;;2.00;;
45007;SDS011;30743;52.008;5.644;2023-10-19T04:13:33;4.70;;;1.77;;
45007;SDS011;30743;52.008;5.644;2023-10-19T04:16:00;6.10;;;2.00;;
45007;SDS011;30743;52.008;5.644;2023-10-19T04:18:25;3.47;;;1.42;;
45007;SDS011;30743;52.008;5.644;2023-10-19T04:20:51;2.47;;;1.33;;
45007;SDS011;30743;52.008;5.644;2023-10-19T04:23:20;4.15;;;1.52;;
45007;SDS011;30743;52.008;5.644;2023-10-19T04:25:52;3.13;;;1.48;;
45007;SDS011;30743;52.008;5.644;2023-10-19T04:28:29;3.35;;;1.60;;
45007;SDS011;30743;52.008;5.644;2023-10-19T04:31:14;1.90;;;1.02;;
45007;SDS011;30743;52.008;5.644;2023-10-19T04:33:41;5.07;;;1.33;;
45007;SDS011;30743;52.008;5.644;2023-10-19T04:36:10;3.10;;;1.40;;
45007;SDS011;30743;52.008;5.644;2023-10-19T04:38:36;3.35;;;1.23;;
45007;SDS011;30743;52.008;5.644;2023-10-19T04:41:08;4.40;;;1.27;;
45007;SDS011;30743;52.008;5.644;2023-10-19T04:43:35;2.78;;;1.17;;
45007;SDS011;30743;52.008;5.644;2023-10-19T04:46:06;2.28;;;1.35;;
45007;SDS011;30743;52.008;5.644;2023-10-19T04:48:35;3.55;;;1.10;;
45007;SDS011;30743;52.008;5.644;2023-10-19T04:51:01;4.97;;;1.65;;
45007;SDS011;30743;52.008;5.644;2023-10-19T04:53:28;2.42;;;1.20;;
45007;SDS011;30743;52.008;5.644;2023-10-19T04:55:55;4.68;;;1.30;;
45007;SDS011;30743;52.008;5.644;2023-10-19T04:58:20;3.13;;;1.40;;
45007;SDS011;30743;52.008;5.644;2023-10-19T05:00:46;4.10;;;1.38;;
45007;SDS011;30743;52.008;5.644;2023-10-19T05:03:12;3.38;;;1.45;;
45007;SDS011;30743;52.008;5.644;2023-10-19T05:05:43;6.22;;;1.92;;
45007;SDS011;30743;52.008;5.644;2023-10-19T05:08:09;5.55;;;2.83;;
45007;SDS011;30743;52.008;5.644;2023-10-19T05:10:34;8.65;;;3.60;;
45007;SDS011;30743;52.008;5.644;2023-10-19T05:13:00;5.57;;;5.05;;
45007;SDS011;30743;52.008;5.644;2023-10-19T05:15:25;7.63;;;4.32;;
45007;SDS011;30743;52.008;5.644;2023-10-19T05:17:51;5.20;;;4.00;;
45007;SDS011;30743;52.008;5.644;2023-10-19T05:20:16;7.07;;;4.40;;
45007;SDS011;30743;52.008;5.644;2023-10-19T05:22:43;7.65;;;5.00;;
45007;SDS011;30743;52.008;5.644;2023-10-19T05:25:09;8.00;;;3.95;;
45007;SDS011;30743;52.008;5.644;2023-10-19T05:27:34;5.97;;;3.40;;
45007;SDS011;30743;52.008;5.644;2023-10-19T05:30:00;3.92;;;2.75;;
45007;SDS011;30743;52.008;5.644;2023-10-19T05:32:27;4.80;;;3.60;;
45007;SDS011;30743;52.008;5.644;2023-10-19T05:34:54;9.27;;;3.90;;
45007;SDS011;30743;52.008;5.644;2023-10-19T05:37:21;8.32;;;4.15;;
45007;SDS011;30743;52.008;5.644;2023-10-19T05:39:47;6.40;;;3.80;;
45007;SDS011;30743;52.008;5.644;2023-10-19T05:42:16;5.97;;;4.30;;
45007;SDS011;30743;52.008;5.644;2023-10-19T05:44:42;5.68;;;4.65;;
45007;SDS011;30743;52.008;5.644;2023-10-19T05:47:08;7.55;;;4.22;;
45007;SDS011;30743;52.008;5.644;2023-10-19T05:49:33;5.57;;;3.60;;
45007;SDS011;30743;52.008;5.644;2023-10-19T05:51:59;5.80;;;3.40;;
45007;SDS011;30743;52.008;5.644;2023-10-19T05:54:24;4.63;;;3.03;;
45007;SDS011;30743;52.008;5.644;2023-10-19T05:56:50;5.80;;;3.28;;
45007;SDS011;30743;52.008;5.644;2023-10-19T05:59:17;6.20;;;3.30;;
45007;SDS011;30743;52.008;5.644;2023-10-19T06:01:43;7.38;;;3.58;;
45007;SDS011;30743;52.008;5.644;2023-10-19T06:04:12;8.57;;;3.83;;
45007;SDS011;30743;52.008;5.644;2023-10-19T06:06:38;8.85;;;3.95;;
45007;SDS011;30743;52.008;5.644;2023-10-19T06:09:04;7.22;;;3.28;;
45007;SDS011;30743;52.008;5.644;2023-10-19T06:11:33;6.07;;;3.70;;
45007;SDS011;30743;52.008;5.644;2023-10-19T06:14:02;4.15;;;2.97;;
45007;SDS011;30743;52.008;5.644;2023-10-19T06:16:33;6.93;;;4.05;;
45007;SDS011;30743;52.008;5.644;2023-10-19T06:18:59;4.03;;;3.30;;
45007;SDS011;30743;52.008;5.644;2023-10-19T06:21:25;6.47;;;3.47;;
45007;SDS011;30743;52.008;5.644;2023-10-19T06:23:51;5.10;;;3.05;;
45007;SDS011;30743;52.008;5.644;2023-10-19T06:26:18;4.82;;;3.58;;
45007;SDS011;30743;52.008;5.644;2023-10-19T06:28:44;8.48;;;3.70;;
45007;SDS011;30743;52.008;5.644;2023-10-19T06:31:10;5.80;;;3.35;;
45007;SDS011;30743;52.008;5.644;2023-10-19T06:33:35;10.93;;;3.50;;
45007;SDS011;30743;52.008;5.644;2023-10-19T06:36:01;3.78;;;3.08;;
45007;SDS011;30743;52.008;5.644;2023-10-19T06:40:59;6.32;;;3.63;;
45007;SDS011;30743;52.008;5.644;2023-10-19T06:43:27;4.88;;;3.13;;
45007;SDS011;30743;52.008;5.644;2023-10-19T06:45:55;4.32;;;3.38;;
45007;SDS011;30743;52.008;5.644;2023-10-19T06:48:21;6.70;;;3.60;;
45007;SDS011;30743;52.008;5.644;2023-10-19T06:50:46;10.20;;;4.82;;
45007;SDS011;30743;52.008;5.644;2023-10-19T06:53:12;4.68;;;3.75;;
45007;SDS011;30743;52.008;5.644;2023-10-19T06:55:37;6.18;;;3.33;;
45007;SDS011;30743;52.008;5.644;2023-10-19T06:58:03;3.97;;;2.63;;
45007;SDS011;30743;52.008;5.644;2023-10-19T07:00:29;3.92;;;2.80;;
45007;SDS011;30743;52.008;5.644;2023-10-19T07:02:55;5.70;;;2.92;;
45007;SDS011;30743;52.008;5.644;2023-10-19T07:05:22;4.47;;;2.50;;
45007;SDS011;30743;52.008;5.644;2023-10-19T07:07:51;5.47;;;2.42;;
45007;SDS011;30743;52.008;5.644;2023-10-19T07:10:19;5.60;;;2.70;;
45007;SDS011;30743;52.008;5.644;2023-10-19T07:12:47;5.35;;;2.30;;
45007;SDS011;30743;52.008;5.644;2023-10-19T07:15:14;5.65;;;2.63;;
45007;SDS011;30743;52.008;5.644;2023-10-19T07:17:40;5.93;;;2.75;;
45007;SDS011;30743;52.008;5.644;2023-10-19T07:20:06;3.20;;;2.50;;
45007;SDS011;30743;52.008;5.644;2023-10-19T07:22:33;4.47;;;2.47;;
45007;SDS011;30743;52.008;5.644;2023-10-19T07:25:02;6.05;;;2.47;;
45007;SDS011;30743;52.008;5.644;2023-10-19T07:27:30;5.25;;;2.20;;
45007;SDS011;30743;52.008;5.644;2023-10-19T07:29:56;5.03;;;2.25;;
45007;SDS011;30743;52.008;5.644;2023-10-19T07:32:22;6.93;;;2.78;;
45007;SDS011;30743;52.008;5.644;2023-10-19T07:34:48;5.28;;;2.08;;
45007;SDS011;30743;52.008;5.644;2023-10-19T07:37:14;5.50;;;1.92;;
45007;SDS011;30743;52.008;5.644;2023-10-19T07:39:45;4.20;;;1.60;;
45007;SDS011;30743;52.008;5.644;2023-10-19T07:42:12;6.38;;;2.30;;
45007;SDS011;30743;52.008;5.644;2023-10-19T07:44:37;2.55;;;1.42;;
45007;SDS011;30743;52.008;5.644;2023-10-19T07:47:03;4.07;;;1.70;;
45007;SDS011;30743;52.008;5.644;2023-10-19T07:49:28;4.50;;;1.73;;
45007;SDS011;30743;52.008;5.644;2023-10-19T07:51:54;8.88;;;1.50;;
45007;SDS011;30743;52.008;5.644;2023-10-19T07:54:20;2.60;;;1.50;;
45007;SDS011;30743;52.008;5.644;2023-10-19T07:56:46;4.85;;;1.52;;
45007;SDS011;30743;52.008;5.644;2023-10-19T07:59:12;3.70;;;1.73;;
45007;SDS011;30743;52.008;5.644;2023-10-19T08:01:38;3.72;;;1.40;;
45007;SDS011;30743;52.008;5.644;2023-10-19T08:04:04;4.88;;;2.05;;
45007;SDS011;30743;52.008;5.644;2023-10-19T08:06:30;6.45;;;1.90;;
45007;SDS011;30743;52.008;5.644;2023-10-19T08:08:56;6.63;;;1.58;;
45007;SDS011;30743;52.008;5.644;2023-10-19T08:11:22;4.88;;;1.90;;
45007;SDS011;30743;52.008;5.644;2023-10-19T08:13:48;5.43;;;1.55;;
45007;SDS011;30743;52.008;5.644;2023-10-19T08:16:14;4.47;;;1.55;;
45007;SDS011;30743;52.008;5.644;2023-10-19T08:18:41;4.28;;;1.85;;
45007;SDS011;30743;52.008;5.644;2023-10-19T08:21:09;5.43;;;1.85;;
45007;SDS011;30743;52.008;5.644;2023-10-19T08:23:35;5.47;;;2.28;;
45007;SDS011;30743;52.008;5.644;2023-10-19T08:26:02;5.38;;;2.10;;
45007;SDS011;30743;52.008;5.644;2023-10-19T08:30:57;7.60;;;2.30;;
45007;SDS011;30743;52.008;5.644;2023-10-19T08:33:25;9.60;;;3.15;;
45007;SDS011;30743;52.008;5.644;2023-10-19T08:35:55;5.55;;;2.83;;
45007;SDS011;30743;52.008;5.644;2023-10-19T08:38:21;5.60;;;3.17;;
45007;SDS011;30743;52.008;5.644;2023-10-19T08:40:48;10.07;;;3.65;;
45007;SDS011;30743;52.008;5.644;2023-10-19T08:43:15;6.20;;;2.85;;
45007;SDS011;30743;52.008;5.644;2023-10-19T08:45:43;7.93;;;2.40;;
45007;SDS011;30743;52.008;5.644;2023-10-19T08:48:10;4.28;;;1.52;;
45007;SDS011;30743;52.008;5.644;2023-10-19T08:50:36;5.18;;;2.03;;
45007;SDS011;30743;52.008;5.644;2023-10-19T08:53:06;6.15;;;1.77;;
45007;SDS011;30743;52.008;5.644;2023-10-19T08:55:39;4.35;;;1.70;;
45007;SDS011;30743;52.008;5.644;2023-10-19T08:58:05;6.15;;;1.67;;
45007;SDS011;30743;52.008;5.644;2023-10-19T09:00:50;4.43;;;1.60;;
45007;SDS011;30743;52.008;5.644;2023-10-19T09:03:19;6.65;;;1.67;;
45007;SDS011;30743;52.008;5.644;2023-10-19T09:05:45;6.20;;;1.55;;
45007;SDS011;30743;52.008;5.644;2023-10-19T09:08:14;4.35;;;1.65;;
45007;SDS011;30743;52.008;5.644;2023-10-19T09:10:42;7.60;;;2.03;;
45007;SDS011;30743;52.008;5.644;2023-10-19T09:13:10;4.93;;;1.17;;
45007;SDS011;30743;52.008;5.644;2023-10-19T09:15:37;3.03;;;1.10;;
45007;SDS011;30743;52.008;5.644;2023-10-19T09:20:43;3.20;;;1.38;;
45007;SDS011;30743;52.008;5.644;2023-10-19T09:23:24;7.38;;;1.25;;
45007;SDS011;30743;52.008;5.644;2023-10-19T09:25:50;7.00;;;1.40;;
45007;SDS011;30743;52.008;5.644;2023-10-19T09:28:20;5.10;;;1.30;;
45007;SDS011;30743;52.008;5.644;2023-10-19T09:30:47;4.68;;;1.25;;
45007;SDS011;30743;52.008;5.644;2023-10-19T09:33:13;4.72;;;1.50;;
45007;SDS011;30743;52.008;5.644;2023-10-19T09:35:42;4.10;;;1.03;;
45007;SDS011;30743;52.008;5.644;2023-10-19T09:38:25;9.80;;;1.42;;
45007;SDS011;30743;52.008;5.644;2023-10-19T09:40:51;10.75;;;2.55;;
45007;SDS011;30743;52.008;5.644;2023-10-19T09:43:24;4.15;;;1.45;;
45007;SDS011;30743;52.008;5.644;2023-10-19T09:45:52;2.90;;;1.42;;
45007;SDS011;30743;52.008;5.644;2023-10-19T09:48:22;5.03;;;1.23;;
45007;SDS011;30743;52.008;5.644;2023-10-19T09:50:51;3.53;;;1.00;;
45007;SDS011;30743;52.008;5.644;2023-10-19T09:53:29;6.35;;;1.65;;
45007;SDS011;30743;52.008;5.644;2023-10-19T09:55:56;4.70;;;1.30;;
45007;SDS011;30743;52.008;5.644;2023-10-19T09:58:24;4.93;;;1.27;;
45007;SDS011;30743;52.008;5.644;2023-10-19T10:00:54;3.42;;;0.90;;
45007;SDS011;30743;52.008;5.644;2023-10-19T10:08:39;2.90;;;1.10;;
45007;SDS011;30743;52.008;5.644;2023-10-19T10:11:17;5.03;;;1.30;;
45007;SDS011;30743;52.008;5.644;2023-10-19T10:13:44;3.28;;;1.30;;
45007;SDS011;30743;52.008;5.644;2023-10-19T10:16:12;4.82;;;0.90;;
45007;SDS011;30743;52.008;5.644;2023-10-19T10:21:06;4.22;;;1.33;;
45007;SDS011;30743;52.008;5.644;2023-10-19T10:23:44;3.80;;;1.40;;
45007;SDS011;30743;52.008;5.644;2023-10-19T10:26:12;3.88;;;1.40;;
45007;SDS011;30743;52.008;5.644;2023-10-19T10:28:39;3.70;;;1.00;;
45007;SDS011;30743;52.008;5.644;2023-10-19T10:36:12;4.15;;;1.65;;
45007;SDS011;30743;52.008;5.644;2023-10-19T10:38:39;7.05;;;1.73;;
45007;SDS011;30743;52.008;5.644;2023-10-19T10:41:05;6.78;;;1.88;;
45007;SDS011;30743;52.008;5.644;2023-10-19T10:43:46;4.95;;;1.80;;
45007;SDS011;30743;52.008;5.644;2023-10-19T10:46:19;5.65;;;1.60;;
45007;SDS011;30743;52.008;5.644;2023-10-19T10:48:54;5.03;;;1.80;;
45007;SDS011;30743;52.008;5.644;2023-10-19T10:51:26;9.40;;;2.10;;
45007;SDS011;30743;52.008;5.644;2023-10-19T10:53:54;4.07;;;1.63;;
45007;SDS011;30743;52.008;5.644;2023-10-19T10:56:20;6.63;;;1.80;;
45007;SDS011;30743;52.008;5.644;2023-10-19T10:58:48;8.02;;;2.42;;
45007;SDS011;30743;52.008;5.644;2023-10-19T11:01:14;5.40;;;1.70;;
45007;SDS011;30743;52.008;5.644;2023-10-19T11:04:04;4.10;;;1.42;;
45007;SDS011;30743;52.008;5.644;2023-10-19T11:06:51;3.50;;;1.70;;
45007;SDS011;30743;52.008;5.644;2023-10-19T11:09:20;5.45;;;1.42;;
45007;SDS011;30743;52.008;5.644;2023-10-19T11:11:49;4.68;;;1.70;;
45007;SDS011;30743;52.008;5.644;2023-10-19T11:14:17;7.75;;;1.52;;
45007;SDS011;30743;52.008;5.644;2023-10-19T11:16:42;5.07;;;1.80;;
45007;SDS011;30743;52.008;5.644;2023-10-19T11:19:08;8.70;;;2.03;;
45007;SDS011;30743;52.008;5.644;2023-10-19T11:21:34;5.13;;;1.60;;
45007;SDS011;30743;52.008;5.644;2023-10-19T11:24:00;5.45;;;1.52;;
45007;SDS011;30743;52.008;5.644;2023-10-19T11:26:26;4.43;;;1.50;;
45007;SDS011;30743;52.008;5.644;2023-10-19T11:29:02;6.85;;;1.88;;
45007;SDS011;30743;52.008;5.644;2023-10-19T11:31:34;4.55;;;1.73;;
45007;SDS011;30743;52.008;5.644;2023-10-19T11:34:03;4.80;;;1.60;;
45007;SDS011;30743;52.008;5.644;2023-10-19T11:36:29;7.10;;;2.13;;
45007;SDS011;30743;52.008;5.644;2023-10-19T11:38:55;4.50;;;1.35;;
45007;SDS011;30743;52.008;5.644;2023-10-19T11:41:21;5.70;;;1.75;;
45007;SDS011;30743;52.008;5.644;2023-10-19T11:43:47;6.10;;;1.60;;
45007;SDS011;30743;52.008;5.644;2023-10-19T11:46:14;5.07;;;1.10;;
45007;SDS011;30743;52.008;5.644;2023-10-19T11:48:41;6.78;;;1.58;;
45007;SDS011;30743;52.008;5.644;2023-10-19T11:51:08;6.40;;;1.38;;
45007;SDS011;30743;52.008;5.644;2023-10-19T11:53:36;5.72;;;1.73;;
45007;SDS011;30743;52.008;5.644;2023-10-19T11:56:03;4.13;;;1.13;;
45007;SDS011;30743;52.008;5.644;2023-10-19T11:58:32;7.03;;;1.45;;
45007;SDS011;30743;52.008;5.644;2023-10-19T12:01:04;4.05;;;1.17;;
45007;SDS011;30743;52.008;5.644;2023-10-19T12:03:33;8.05;;;1.60;;
45007;SDS011;30743;52.008;5.644;2023-10-19T12:06:02;5.85;;;1.27;;
45007;SDS011;30743;52.008;5.644;2023-10-19T12:08:31;8.85;;;2.03;;
45007;SDS011;30743;52.008;5.644;2023-10-19T12:11:00;6.55;;;1.58;;
45007;SDS011;30743;52.008;5.644;2023-10-19T12:13:28;5.22;;;1.83;;
45007;SDS011;30743;52.008;5.644;2023-10-19T12:15:54;6.10;;;1.70;;
45007;SDS011;30743;52.008;5.644;2023-10-19T12:18:23;5.53;;;1.35;;
45007;SDS011;30743;52.008;5.644;2023-10-19T12:20:50;5.30;;;1.40;;
45007;SDS011;30743;52.008;5.644;2023-10-19T12:23:21;4.25;;;1.50;;
45007;SDS011;30743;52.008;5.644;2023-10-19T12:25:48;6.05;;;1.40;;
45007;SDS011;30743;52.008;5.644;2023-10-19T12:28:13;5.95;;;1.60;;
45007;SDS011;30743;52.008;5.644;2023-10-19T12:30:40;4.03;;;1.50;;
45007;SDS011;30743;52.008;5.644;2023-10-19T12:33:06;6.82;;;1.60;;
45007;SDS011;30743;52.008;5.644;2023-10-19T12:35:41;5.95;;;1.60;;
45007;SDS011;30743;52.008;5.644;2023-10-19T12:38:13;9.85;;;1.77;;
45007;SDS011;30743;52.008;5.644;2023-10-19T12:40:42;4.38;;;1.50;;
45007;SDS011;30743;52.008;5.644;2023-10-19T12:43:09;5.97;;;1.67;;
45007;SDS011;30743;52.008;5.644;2023-10-19T12:45:35;5.47;;;1.42;;
45007;SDS011;30743;52.008;5.644;2023-10-19T12:48:02;8.98;;;1.80;;
45007;SDS011;30743;52.008;5.644;2023-10-19T12:50:29;7.35;;;1.30;;
45007;SDS011;30743;52.008;5.644;2023-10-19T12:52:55;7.80;;;1.58;;
45007;SDS011;30743;52.008;5.644;2023-10-19T12:55:21;6.82;;;2.05;;
45007;SDS011;30743;52.008;5.644;2023-10-19T12:57:47;6.13;;;1.23;;
45007;SDS011;30743;52.008;5.644;2023-10-19T13:00:12;4.60;;;1.60;;
45007;SDS011;30743;52.008;5.644;2023-10-19T13:03:01;5.28;;;1.35;;
45007;SDS011;30743;52.008;5.644;2023-10-19T13:05:33;4.88;;;1.58;;
45007;SDS011;30743;52.008;5.644;2023-10-19T13:08:02;5.97;;;1.48;;
45007;SDS011;30743;52.008;5.644;2023-10-19T13:10:32;5.22;;;1.80;;
45007;SDS011;30743;52.008;5.644;2023-10-19T13:13:04;4.28;;;1.30;;
45007;SDS011;30743;52.008;5.644;2023-10-19T13:15:31;5.03;;;1.40;;
45007;SDS011;30743;52.008;5.644;2023-10-19T13:17:59;5.13;;;1.90;;
45007;SDS011;30743;52.008;5.644;2023-10-19T13:20:29;7.50;;;1.45;;
45007;SDS011;30743;52.008;5.644;2023-10-19T13:23:01;7.38;;;1.60;;
45007;SDS011;30743;52.008;5.644;2023-10-19T13:25:36;5.95;;;1.60;;
45007;SDS011;30743;52.008;5.644;2023-10-19T13:28:16;5.53;;;1.70;;
45007;SDS011;30743;52.008;5.644;2023-10-19T13:30:45;5.30;;;1.48;;
45007;SDS011;30743;52.008;5.644;2023-10-19T13:33:12;7.45;;;2.35;;
45007;SDS011;30743;52.008;5.644;2023-10-19T13:35:39;5.95;;;1.77;;
45007;SDS011;30743;52.008;5.644;2023-10-19T13:38:06;6.47;;;1.90;;
45007;SDS011;30743;52.008;5.644;2023-10-19T13:40:38;8.80;;;1.67;;
45007;SDS011;30743;52.008;5.644;2023-10-19T13:43:04;7.07;;;1.50;;
45007;SDS011;30743;52.008;5.644;2023-10-19T13:45:31;8.65;;;2.10;;
45007;SDS011;30743;52.008;5.644;2023-10-19T13:48:04;5.40;;;1.30;;
45007;SDS011;30743;52.008;5.644;2023-10-19T13:50:30;7.13;;;1.60;;
45007;SDS011;30743;52.008;5.644;2023-10-19T13:52:57;7.55;;;2.05;;
45007;SDS011;30743;52.008;5.644;2023-10-19T13:55:24;5.93;;;1.52;;
45007;SDS011;30743;52.008;5.644;2023-10-19T13:57:50;6.97;;;1.70;;
45007;SDS011;30743;52.008;5.644;2023-10-19T14:00:16;4.78;;;1.45;;
45007;SDS011;30743;52.008;5.644;2023-10-19T14:02:53;6.90;;;1.67;;
45007;SDS011;30743;52.008;5.644;2023-10-19T14:05:18;7.00;;;1.58;;
45007;SDS011;30743;52.008;5.644;2023-10-19T14:07:48;5.30;;;1.40;;
45007;SDS011;30743;52.008;5.644;2023-10-19T14:10:13;5.93;;;1.75;;
45007;SDS011;30743;52.008;5.644;2023-10-19T14:12:39;4.82;;;1.50;;
45007;SDS011;30743;52.008;5.644;2023-10-19T14:15:12;7.38;;;1.45;;
45007;SDS011;30743;52.008;5.644;2023-10-19T14:17:42;6.82;;;1.42;;
45007;SDS011;30743;52.008;5.644;2023-10-19T14:20:10;4.72;;;1.55;;
45007;SDS011;30743;52.008;5.644;2023-10-19T14:22:37;6.60;;;1.90;;
45007;SDS011;30743;52.008;5.644;2023-10-19T14:25:04;5.20;;;1.65;;
45007;SDS011;30743;52.008;5.644;2023-10-19T14:27:33;7.22;;;1.67;;
45007;SDS011;30743;52.008;5.644;2023-10-19T14:29:59;6.65;;;1.92;;
45007;SDS011;30743;52.008;5.644;2023-10-19T14:32:25;4.78;;;1.35;;
45007;SDS011;30743;52.008;5.644;2023-10-19T14:34:52;8.07;;;1.55;;
45007;SDS011;30743;52.008;5.644;2023-10-19T14:37:18;6.32;;;1.60;;
45007;SDS011;30743;52.008;5.644;2023-10-19T14:39:44;5.20;;;1.50;;
45007;SDS011;30743;52.008;5.644;2023-10-19T14:42:10;4.82;;;1.50;;
45007;SDS011;30743;52.008;5.644;2023-10-19T14:44:35;5.28;;;1.20;;
45007;SDS011;30743;52.008;5.644;2023-10-19T14:47:01;8.30;;;2.22;;
45007;SDS011;30743;52.008;5.644;2023-10-19T14:49:29;7.20;;;1.80;;
45007;SDS011;30743;52.008;5.644;2023-10-19T14:51:55;4.55;;;1.83;;
45007;SDS011;30743;52.008;5.644;2023-10-19T14:54:21;8.05;;;2.00;;
45007;SDS011;30743;52.008;5.644;2023-10-19T14:56:47;7.63;;;1.98;;
45007;SDS011;30743;52.008;5.644;2023-10-19T14:59:12;6.82;;;2.00;;
45007;SDS011;30743;52.008;5.644;2023-10-19T15:01:38;6.88;;;1.98;;
45007;SDS011;30743;52.008;5.644;2023-10-19T15:04:04;5.43;;;1.83;;
45007;SDS011;30743;52.008;5.644;2023-10-19T15:06:30;8.48;;;2.00;;
45007;SDS011;30743;52.008;5.644;2023-10-19T15:08:56;5.85;;;1.63;;
45007;SDS011;30743;52.008;5.644;2023-10-19T15:11:22;6.35;;;2.20;;
45007;SDS011;30743;52.008;5.644;2023-10-19T15:13:49;8.80;;;2.42;;
45007;SDS011;30743;52.008;5.644;2023-10-19T15:16:15;6.63;;;2.38;;
45007;SDS011;30743;52.008;5.644;2023-10-19T15:18:42;5.72;;;2.15;;
45007;SDS011;30743;52.008;5.644;2023-10-19T15:21:08;6.15;;;1.77;;
45007;SDS011;30743;52.008;5.644;2023-10-19T15:23:34;5.95;;;1.63;;